Time;durP1;ratioP1;P1;durP2;ratioP2;P2;SDS_P1;SDS_P2;PMS_P1;PMS_P2;Temp;Humidity;BMP_temperature;BMP_pressure;BME280_temperature;BME280_humidity;BME280_pressure;Samples;Min_cycle;Max_cycle;Signal;HPM_P1;HPM_P2
2021/08/15 00:01:07;;;;;;;19.57;8.43;;;;;;;17.81;68.72;100289.18;126855;1093;22787;-80
2021/08/15 00:03:39;;;;;;;21.63;8.50;;;;;;;17.83;69.15;100289.41;126776;1092;22756;-81
2021/08/15 00:06:11;;;;;;;18.60;8.30;;;;;;;17.82;69.62;100285.82;126861;1093;22761;-81
2021/08/15 00:08:42;;;;;;;16.60;6.50;;;;;;;17.79;69.76;100289.72;126756;1093;22858;-80
2021/08/15 00:11:14;;;;;;;21.17;8.57;;;;;;;17.76;69.88;100282.28;126676;1093;24241;-80
2021/08/15 00:13:45;;;;;;;20.90;7.63;;;;;;;17.71;70.00;100283.13;126655;1093;27182;-80
2021/08/15 00:16:17;;;;;;;15.90;7.00;;;;;;;17.70;69.81;100282.34;126744;1093;22943;-80
2021/08/15 00:18:48;;;;;;;19.35;7.40;;;;;;;17.69;69.58;100280.80;126733;1092;22797;-80
2021/08/15 00:21:20;;;;;;;16.70;7.50;;;;;;;17.68;70.12;100284.94;126833;1093;26280;-81
2021/08/15 00:23:51;;;;;;;19.70;7.70;;;;;;;17.69;69.81;100280.06;127165;1093;22877;-81
2021/08/15 00:26:23;;;;;;;18.90;7.73;;;;;;;17.65;70.29;100285.97;127214;1093;22916;-81
2021/08/15 00:28:54;;;;;;;18.53;7.80;;;;;;;17.61;70.22;100270.61;127116;1093;22751;-81
2021/08/15 00:31:28;;;;;;;19.13;8.20;;;;;;;17.58;69.95;100272.45;127241;1092;22794;-81
2021/08/15 00:34:00;;;;;;;19.33;9.00;;;;;;;17.58;70.16;100274.50;127193;1093;22828;-81
2021/08/15 00:36:32;;;;;;;23.70;8.95;;;;;;;17.56;70.86;100268.63;127196;1093;23514;-81
2021/08/15 00:39:04;;;;;;;30.57;8.20;;;;;;;17.56;70.24;100268.63;127141;1092;22811;-82
2021/08/15 00:41:35;;;;;;;20.33;7.63;;;;;;;17.53;70.58;100276.08;127237;1092;22772;-81
2021/08/15 00:44:08;;;;;;;24.83;8.07;;;;;;;17.48;70.49;100261.99;127202;1093;23008;-81
2021/08/15 00:46:46;;;;;;;20.00;8.00;;;;;;;17.43;70.53;100268.44;127177;1093;25781;-81
2021/08/15 00:49:19;;;;;;;19.03;7.33;;;;;;;17.38;70.56;100263.63;127286;1093;22854;-81
2021/08/15 00:51:51;;;;;;;16.10;7.45;;;;;;;17.34;70.78;100257.50;127307;1092;22773;-81
2021/08/15 00:54:22;;;;;;;17.65;7.45;;;;;;;17.30;70.93;100254.20;127245;1093;22845;-81
2021/08/15 00:56:56;;;;;;;17.35;6.85;;;;;;;17.25;70.80;100250.13;127198;1093;22837;-81
2021/08/15 00:59:28;;;;;;;16.83;7.03;;;;;;;17.23;71.18;100254.76;127244;1093;24364;-80
2021/08/15 01:02:00;;;;;;;18.93;8.97;;;;;;;17.19;70.96;100254.28;127268;1092;22793;-81
2021/08/15 01:04:31;;;;;;;25.75;8.40;;;;;;;17.18;71.29;100252.73;127167;1093;25780;-81
2021/08/15 01:07:04;;;;;;;18.07;7.60;;;;;;;17.14;71.10;100255.84;127296;1093;22790;-81
2021/08/15 01:09:36;;;;;;;18.73;7.07;;;;;;;17.10;70.85;100260.23;127235;1092;22972;-81
2021/08/15 01:12:08;;;;;;;18.10;7.90;;;;;;;17.07;71.22;100266.94;127158;1092;22855;-81
2021/08/15 01:14:40;;;;;;;18.40;7.10;;;;;;;17.02;71.33;100262.09;127254;1093;22776;-81
2021/08/15 01:17:11;;;;;;;17.20;7.47;;;;;;;16.97;71.63;100258.78;127226;1093;26388;-81
2021/08/15 01:19:43;;;;;;;21.65;7.15;;;;;;;16.94;71.20;100259.84;127125;1093;22749;-81
2021/08/15 01:22:15;;;;;;;17.55;7.60;;;;;;;16.92;71.68;100256.75;126996;1092;23065;-81
2021/08/15 01:24:46;;;;;;;16.00;6.75;;;;;;;16.91;71.15;100252.41;127278;1093;22924;-81
2021/08/15 01:27:17;;;;;;;17.50;6.70;;;;;;;16.86;71.21;100250.38;127309;1092;22894;-81
2021/08/15 01:29:50;;;;;;;14.93;6.17;;;;;;;16.84;71.64;100252.22;127297;1092;22808;-80
2021/08/15 01:32:23;;;;;;;17.45;6.95;;;;;;;16.83;71.39;100259.91;127457;1093;22896;-81
2021/08/15 01:34:57;;;;;;;19.63;6.67;;;;;;;16.83;71.72;100245.81;127395;1093;22741;-80
2021/08/15 01:37:28;;;;;;;16.00;7.40;;;;;;;16.83;71.48;100245.81;127215;1092;24174;-80
2021/08/15 01:40:02;;;;;;;17.05;8.15;;;;;;;16.81;72.02;100244.79;127184;1093;22803;-80
2021/08/15 01:42:34;;;;;;;16.90;8.10;;;;;;;16.79;71.65;100239.69;126833;1092;22790;-80
2021/08/15 01:45:13;;;;;;;17.05;7.10;;;;;;;16.79;71.91;100244.55;126827;1093;25775;-80
2021/08/15 01:47:44;;;;;;;17.48;7.75;;;;;;;16.76;72.18;100237.89;126868;1093;22821;-80
2021/08/15 01:50:16;;;;;;;18.25;7.60;;;;;;;16.76;72.17;100249.17;126867;1093;22787;-80
2021/08/15 01:52:47;;;;;;;19.45;7.05;;;;;;;16.76;72.39;100239.97;127189;1093;22767;-80
2021/08/15 01:55:19;;;;;;;14.25;6.70;;;;;;;16.74;72.17;100236.88;127349;1093;22952;-81
2021/08/15 01:57:50;;;;;;;14.60;6.65;;;;;;;16.72;71.93;100231.00;127212;1092;22916;-80
2021/08/15 02:00:22;;;;;;;17.67;7.43;;;;;;;16.70;72.36;100230.75;127237;1093;22795;-81
2021/08/15 02:02:53;;;;;;;18.70;7.25;;;;;;;16.68;72.13;100236.15;127154;1092;22788;-80
2021/08/15 02:05:24;;;;;;;16.75;7.25;;;;;;;16.66;72.37;100235.91;127319;1092;28720;-80
2021/08/15 02:07:55;;;;;;;15.70;6.63;;;;;;;16.63;72.83;100243.38;127171;1092;22802;-80
2021/08/15 02:10:29;;;;;;;16.40;6.90;;;;;;;16.58;72.76;100234.92;127316;1093;22764;-81
2021/08/15 02:13:04;;;;;;;20.15;7.95;;;;;;;16.56;72.65;100240.32;127251;1092;27182;-80
2021/08/15 02:15:36;;;;;;;19.30;7.35;;;;;;;16.51;72.77;100236.23;127247;1093;22869;-80
2021/08/15 02:18:07;;;;;;;16.83;6.57;;;;;;;16.38;72.54;100241.67;127280;1093;22798;-80
2021/08/15 02:20:39;;;;;;;17.50;5.75;;;;;;;16.23;72.95;100240.44;127301;1093;22764;-80
2021/08/15 02:23:10;;;;;;;18.90;6.50;;;;;;;16.16;73.23;100239.70;127268;1091;24259;-81
2021/08/15 02:25:42;;;;;;;18.70;8.10;;;;;;;16.13;73.23;100237.94;127237;1093;27322;-81
2021/08/15 02:28:13;;;;;;;17.00;6.95;;;;;;;16.10;73.03;100241.77;127220;1092;22866;-81
2021/08/15 02:30:44;;;;;;;16.07;7.13;;;;;;;16.09;73.32;100242.30;126924;1093;22787;-81
2021/08/15 02:33:15;;;;;;;17.65;6.85;;;;;;;16.06;73.58;100234.87;126884;1092;22837;-81
2021/08/15 02:35:46;;;;;;;15.80;6.40;;;;;;;16.04;73.56;100234.62;126872;1093;22776;-80
2021/08/15 02:38:18;;;;;;;23.10;7.63;;;;;;;16.04;73.40;100237.44;126860;1093;22815;-81
2021/08/15 02:40:49;;;;;;;15.60;6.00;;;;;;;16.03;73.34;100235.92;127330;1093;22937;-80
2021/08/15 02:43:20;;;;;;;17.37;6.80;;;;;;;16.03;73.47;100238.73;127321;1093;22843;-81
2021/08/15 02:45:52;;;;;;;17.35;6.60;;;;;;;16.02;73.51;100234.38;127400;1093;22785;-80
2021/08/15 02:48:23;;;;;;;14.83;6.33;;;;;;;16.01;73.43;100227.22;127401;1092;22818;-81
2021/08/15 02:50:55;;;;;;;18.60;6.80;;;;;;;15.99;73.52;100230.53;127273;1093;22882;-80
2021/08/15 02:53:26;;;;;;;15.30;6.70;;;;;;;15.98;73.65;100233.88;127292;1092;26280;-80
2021/08/15 02:55:58;;;;;;;16.05;6.95;;;;;;;15.97;73.79;100229.54;127350;1093;27527;-80
2021/08/15 02:58:30;;;;;;;16.85;7.35;;;;;;;15.95;73.61;100220.84;127245;1093;22872;-80
2021/08/15 03:01:01;;;;;;;18.40;6.30;;;;;;;15.94;73.64;100222.11;127327;1093;22816;-81
2021/08/15 03:03:33;;;;;;;15.77;6.47;;;;;;;15.94;73.30;100228.52;127319;1093;22951;-81
2021/08/15 03:06:04;;;;;;;13.90;6.10;;;;;;;15.93;73.79;100224.16;127220;1093;23506;-80
2021/08/15 03:08:35;;;;;;;16.63;6.53;;;;;;;15.93;73.73;100223.41;127281;1093;22790;-80
2021/08/15 03:11:07;;;;;;;12.90;5.85;;;;;;;15.90;73.46;100218.80;127489;1092;27309;-80
2021/08/15 03:13:39;;;;;;;20.97;7.23;;;;;;;15.89;73.53;100217.28;127323;1093;22886;-81
2021/08/15 03:16:18;;;;;;;15.38;7.10;;;;;;;15.88;73.66;100207.29;127135;1093;23383;-80
2021/08/15 03:18:50;;;;;;;19.10;7.30;;;;;;;15.87;73.91;100206.52;127097;1093;22775;-79
2021/08/15 03:21:24;;;;;;;15.95;6.30;;;;;;;15.86;73.53;100213.44;126686;1092;23144;-79
2021/08/15 03:23:55;;;;;;;17.97;7.93;;;;;;;15.86;73.75;100215.48;126810;1092;26388;-79
2021/08/15 03:26:26;;;;;;;20.13;7.23;;;;;;;15.86;73.79;100226.75;126606;1093;22795;-82
2021/08/15 03:28:57;;;;;;;24.40;7.95;;;;;;;15.83;74.00;100222.16;126785;1093;26290;-80
2021/08/15 03:31:28;;;;;;;15.50;7.53;;;;;;;15.79;74.07;100216.00;126993;1093;22805;-80
2021/08/15 03:34:00;;;;;;;18.15;7.55;;;;;;;15.78;73.78;100220.11;127369;1093;22787;-80
2021/08/15 03:36:31;;;;;;;20.45;7.10;;;;;;;15.76;74.14;100220.64;126968;1093;25367;-80
2021/08/15 03:39:02;;;;;;;17.05;6.90;;;;;;;15.75;74.30;100215.50;126894;1093;22746;-80
2021/08/15 03:41:34;;;;;;;21.73;7.07;;;;;;;15.73;74.03;100218.06;126841;1093;22764;-80
2021/08/15 03:44:05;;;;;;;16.23;7.00;;;;;;;15.70;74.25;100211.45;126884;1092;22840;-80
2021/08/15 03:46:37;;;;;;;19.03;7.63;;;;;;;15.71;74.27;100204.52;126956;1093;23427;-80
2021/08/15 03:49:08;;;;;;;20.83;7.67;;;;;;;15.71;74.42;100203.75;126972;1093;23046;-80
2021/08/15 03:51:39;;;;;;;16.70;7.30;;;;;;;15.70;74.48;100214.26;126940;1092;24226;-81
2021/08/15 03:54:10;;;;;;;15.70;6.80;;;;;;;15.70;74.65;100202.23;126832;1092;22812;-80
2021/08/15 03:56:42;;;;;;;17.35;7.50;;;;;;;15.69;74.75;100204.27;126807;1092;22764;-80
2021/08/15 03:59:13;;;;;;;19.20;7.70;;;;;;;15.69;74.93;100195.83;126972;1092;22788;-80
2021/08/15 04:01:45;;;;;;;18.15;8.50;;;;;;;15.72;75.02;100202.48;127505;1093;26356;-80
2021/08/15 04:04:17;;;;;;;20.60;8.90;;;;;;;15.71;75.06;100204.52;127391;1093;22837;-80
2021/08/15 04:06:48;;;;;;;18.40;8.55;;;;;;;15.71;75.21;100201.70;127379;1092;22772;-80
2021/08/15 04:09:19;;;;;;;19.50;9.40;;;;;;;15.73;75.02;100192.73;127494;1093;23045;-81
2021/08/15 04:11:50;;;;;;;22.00;10.45;;;;;;;15.73;75.54;100199.14;127432;1093;22866;-80
2021/08/15 04:14:22;;;;;;;21.05;9.60;;;;;;;15.74;75.50;100191.47;127407;1093;22922;-81
2021/08/15 04:16:54;;;;;;;19.95;9.25;;;;;;;15.74;75.51;100194.28;126915;1093;22955;-81
2021/08/15 04:19:25;;;;;;;22.75;10.80;;;;;;;15.75;75.83;100193.76;126848;1092;22761;-80
2021/08/15 04:21:56;;;;;;;17.80;9.15;;;;;;;15.77;75.69;100199.64;126926;1092;22931;-80
2021/08/15 04:24:28;;;;;;;20.50;9.95;;;;;;;15.79;76.04;100199.89;126819;1093;23431;-80
2021/08/15 04:26:59;;;;;;;21.40;10.15;;;;;;;15.82;76.19;100198.87;126977;1093;22815;-80
2021/08/15 04:29:30;;;;;;;21.05;10.05;;;;;;;15.84;76.04;100201.94;126922;1092;22759;-80
2021/08/15 04:32:01;;;;;;;20.93;11.30;;;;;;;15.87;76.15;100202.95;127458;1093;27390;-80
2021/08/15 04:34:33;;;;;;;22.00;10.90;;;;;;;15.89;76.19;100201.13;127380;1091;22772;-81
2021/08/15 04:37:05;;;;;;;20.85;11.15;;;;;;;15.94;76.53;100200.36;127336;1093;22934;-80
2021/08/15 04:39:37;;;;;;;23.80;12.35;;;;;;;15.96;76.97;100205.47;127373;1092;22790;-80
2021/08/15 04:42:08;;;;;;;20.30;10.40;;;;;;;15.98;76.75;100202.90;127305;1092;22925;-80
2021/08/15 04:44:39;;;;;;;21.25;11.00;;;;;;;16.01;76.90;100201.88;127213;1092;22773;-80
2021/08/15 04:47:11;;;;;;;21.30;11.30;;;;;;;16.05;76.88;100203.15;127311;1093;22752;-80
2021/08/15 04:49:42;;;;;;;20.55;11.00;;;;;;;16.08;76.90;100206.95;127407;1093;24205;-80
2021/08/15 04:52:13;;;;;;;22.77;11.23;;;;;;;16.12;76.96;100213.86;127239;1092;22787;-80
2021/08/15 04:54:44;;;;;;;26.75;10.75;;;;;;;16.14;76.86;100207.70;127132;1093;22790;-80
2021/08/15 04:57:16;;;;;;;22.63;10.90;;;;;;;16.19;77.10;100206.92;127114;1092;22955;-80
2021/08/15 04:59:47;;;;;;;22.23;10.90;;;;;;;16.23;77.21;100210.23;126673;1093;22808;-80
2021/08/15 05:02:18;;;;;;;21.95;11.50;;;;;;;16.28;77.36;100192.55;126694;1092;26261;-79
2021/08/15 05:04:49;;;;;;;22.10;10.90;;;;;;;16.34;77.83;100212.23;126688;1093;22918;-80
2021/08/15 05:07:20;;;;;;;20.55;10.40;;;;;;;16.34;78.27;100227.09;126797;1092;22844;-79
2021/08/15 05:09:52;;;;;;;20.00;9.65;;;;;;;16.36;78.88;100216.06;126713;1092;25816;-80
2021/08/15 05:12:23;;;;;;;21.50;10.85;;;;;;;16.40;79.31;100225.02;126681;1092;22761;-79
2021/08/15 05:14:54;;;;;;;25.95;11.30;;;;;;;16.46;79.08;100234.20;126762;1093;23337;-81
2021/08/15 05:17:25;;;;;;;21.80;11.75;;;;;;;16.53;79.21;100216.02;126739;1093;22764;-80
2021/08/15 05:19:56;;;;;;;23.25;12.75;;;;;;;16.62;79.07;100239.00;126719;1092;25300;-79
2021/08/15 05:22:27;;;;;;;24.55;11.90;;;;;;;16.71;79.59;100233.07;126731;1092;22853;-80
2021/08/15 05:24:59;;;;;;;24.40;11.97;;;;;;;16.80;79.38;100243.27;126716;1093;22947;-80
2021/08/15 05:27:30;;;;;;;28.75;12.40;;;;;;;16.90;79.14;100233.20;126745;1093;26219;-80
2021/08/15 05:30:01;;;;;;;24.70;12.15;;;;;;;16.99;78.94;100239.28;126703;1092;22819;-79
2021/08/15 05:32:33;;;;;;;26.40;13.93;;;;;;;17.10;79.03;100229.20;126720;1093;22745;-79
2021/08/15 05:35:05;;;;;;;25.60;13.40;;;;;;;17.19;78.77;100231.70;126579;1093;22912;-78
2021/08/15 05:37:36;;;;;;;23.60;11.90;;;;;;;17.31;78.81;100238.79;126564;1093;22965;-78
2021/08/15 05:40:09;;;;;;;24.10;11.80;;;;;;;17.42;78.54;100236.63;126539;1092;26319;-78
2021/08/15 05:42:41;;;;;;;23.90;11.90;;;;;;;17.54;78.61;100234.52;126634;1093;26008;-77
2021/08/15 05:45:13;;;;;;;21.70;12.05;;;;;;;17.65;78.42;100223.09;126481;1093;22761;-78
2021/08/15 05:47:47;;;;;;;23.70;11.70;;;;;;;17.73;78.16;100224.80;126547;1093;22812;-78
2021/08/15 05:50:18;;;;;;;23.80;11.40;;;;;;;17.83;77.94;100221.64;126588;1093;24630;-78
2021/08/15 05:52:49;;;;;;;24.90;12.70;;;;;;;17.95;77.97;100217.39;126556;1093;22792;-78
2021/08/15 05:55:20;;;;;;;24.75;12.60;;;;;;;18.05;78.07;100216.50;126492;1093;22796;-78
2021/08/15 05:57:51;;;;;;;22.05;12.70;;;;;;;18.14;77.78;100223.86;126531;1093;27549;-77
2021/08/15 06:00:23;;;;;;;23.80;12.30;;;;;;;18.25;78.40;100215.25;126506;1092;27402;-77
2021/08/15 06:02:54;;;;;;;24.30;10.77;;;;;;;18.40;77.83;100212.72;126522;1092;23024;-78
2021/08/15 06:05:27;;;;;;;24.43;11.87;;;;;;;18.53;77.63;100218.50;126540;1093;23458;-78
2021/08/15 06:07:58;;;;;;;25.00;12.50;;;;;;;18.60;77.39;100220.72;126638;1093;22918;-78
2021/08/15 06:10:30;;;;;;;29.00;13.13;;;;;;;18.68;77.27;100213.16;126627;1092;23618;-78
2021/08/15 06:13:01;;;;;;;25.20;12.20;;;;;;;18.75;76.59;100209.69;126850;1093;22818;-78
2021/08/15 06:15:32;;;;;;;24.27;10.87;;;;;;;18.87;77.15;100204.65;126662;1092;22805;-78
2021/08/15 06:18:04;;;;;;;24.10;11.70;;;;;;;19.01;76.75;100204.16;126610;1093;22906;-78
2021/08/15 06:20:35;;;;;;;22.23;11.68;;;;;;;19.13;76.88;100201.91;126569;1093;26567;-78
2021/08/15 06:23:06;;;;;;;22.55;10.55;;;;;;;19.28;76.85;100207.84;126618;1092;22816;-79
2021/08/15 06:25:37;;;;;;;18.28;9.50;;;;;;;19.40;76.53;100214.09;126603;1092;22746;-79
2021/08/15 06:28:09;;;;;;;22.93;11.30;;;;;;;19.49;75.75;100216.52;126616;1092;22797;-79
2021/08/15 06:30:40;;;;;;;22.27;9.10;;;;;;;19.54;75.43;100221.30;126637;1091;24183;-79
2021/08/15 06:33:11;;;;;;;20.87;9.97;;;;;;;19.61;74.97;100221.44;126969;1092;22769;-79
2021/08/15 06:35:42;;;;;;;20.00;9.33;;;;;;;19.69;74.53;100221.55;126639;1093;22781;-79
2021/08/15 06:38:14;;;;;;;21.63;9.03;;;;;;;19.75;74.57;100213.71;126652;1093;22810;-79
2021/08/15 06:40:45;;;;;;;21.15;9.15;;;;;;;19.83;74.30;100220.25;126566;1093;22928;-79
2021/08/15 06:43:17;;;;;;;21.50;10.48;;;;;;;19.94;74.07;100225.72;126677;1093;22788;-78
2021/08/15 06:45:48;;;;;;;21.58;8.58;;;;;;;20.03;73.92;100228.86;126625;1092;22838;-78
2021/08/15 06:48:20;;;;;;;21.58;9.15;;;;;;;20.15;73.77;100227.33;126615;1093;22793;-78
2021/08/15 06:50:54;;;;;;;17.07;7.60;;;;;;;20.25;73.46;100233.37;126572;1092;22825;-78
2021/08/15 06:53:28;;;;;;;18.63;8.85;;;;;;;20.34;72.88;100223.66;126575;1093;22909;-78
2021/08/15 06:55:59;;;;;;;17.33;8.43;;;;;;;20.46;73.22;100227.77;126592;1093;22760;-79
2021/08/15 06:58:32;;;;;;;16.70;7.25;;;;;;;20.57;73.36;100227.52;126781;1092;22760;-79
2021/08/15 07:01:04;;;;;;;18.75;8.98;;;;;;;20.70;73.66;100233.16;127290;1093;23553;-79
2021/08/15 07:03:35;;;;;;;19.48;8.05;;;;;;;20.88;73.27;100229.39;126972;1093;25983;-79
2021/08/15 07:06:06;;;;;;;27.28;7.98;;;;;;;20.98;73.10;100221.95;126847;1092;26290;-78
2021/08/15 07:08:37;;;;;;;18.73;7.78;;;;;;;21.08;72.81;100222.27;126844;1093;22767;-78
2021/08/15 07:11:09;;;;;;;13.78;6.05;;;;;;;21.27;71.80;100234.19;126751;1092;22759;-78
2021/08/15 07:13:40;;;;;;;23.77;6.83;;;;;;;21.39;71.20;100235.43;126835;1093;22929;-79
2021/08/15 07:16:12;;;;;;;17.55;7.18;;;;;;;21.53;70.90;100229.13;126867;1093;27416;-79
2021/08/15 07:18:43;;;;;;;12.33;5.55;;;;;;;21.66;70.27;100229.02;126892;1092;22787;-78
2021/08/15 07:21:15;;;;;;;15.35;6.10;;;;;;;21.82;69.84;100235.61;126568;1092;22764;-79
2021/08/15 07:23:46;;;;;;;13.00;4.50;;;;;;;21.96;69.56;100237.03;126586;1092;26306;-79
2021/08/15 07:26:17;;;;;;;14.98;5.35;;;;;;;22.08;69.00;100235.41;126609;1093;22810;-78
2021/08/15 07:28:49;;;;;;;13.93;4.90;;;;;;;22.23;68.61;100229.04;126725;1093;23343;-78
2021/08/15 07:31:21;;;;;;;12.18;4.30;;;;;;;22.33;68.27;100225.12;126660;1093;22763;-77
2021/08/15 07:33:52;;;;;;;11.28;4.38;;;;;;;22.43;67.67;100225.34;126896;1093;22764;-79
2021/08/15 07:36:24;;;;;;;14.55;4.65;;;;;;;22.54;65.56;100234.32;126629;1093;22767;-79
2021/08/15 07:38:55;;;;;;;15.00;4.70;;;;;;;22.67;65.99;100236.30;126508;1091;22746;-80
2021/08/15 07:41:27;;;;;;;13.40;4.30;;;;;;;22.74;65.42;100229.86;126569;1093;22823;-79
2021/08/15 07:43:58;;;;;;;12.07;4.37;;;;;;;22.84;65.34;100236.55;126613;1093;23002;-80
2021/08/15 07:46:30;;;;;;;12.90;4.63;;;;;;;22.92;64.74;100239.41;126829;1092;22773;-80
2021/08/15 07:49:02;;;;;;;14.45;4.68;;;;;;;22.99;65.08;100236.58;126847;1093;22848;-79
2021/08/15 07:51:33;;;;;;;9.95;3.45;;;;;;;23.09;64.00;100228.27;126776;1093;22775;-78
2021/08/15 07:54:05;;;;;;;11.98;3.50;;;;;;;23.18;63.07;100234.16;126820;1093;22736;-79
2021/08/15 07:56:37;;;;;;;12.58;2.95;;;;;;;23.26;63.06;100229.22;126769;1091;23649;-79
2021/08/15 07:59:10;;;;;;;11.65;3.03;;;;;;;23.38;62.33;100223.20;126640;1093;22853;-79
2021/08/15 08:01:43;;;;;;;10.83;3.43;;;;;;;23.51;62.18;100226.61;126837;1093;26277;-80
2021/08/15 08:04:14;;;;;;;13.48;3.13;;;;;;;23.60;61.78;100225.28;126857;1092;27414;-80
2021/08/15 08:06:47;;;;;;;11.73;3.38;;;;;;;23.67;60.99;100219.56;126828;1091;22788;-81
2021/08/15 08:09:19;;;;;;;12.70;3.75;;;;;;;23.71;60.84;100230.61;127494;1093;23351;-80
2021/08/15 08:11:55;;;;;;;9.20;3.65;;;;;;;23.74;60.77;100215.19;127635;1092;22835;-81
2021/08/15 08:14:27;;;;;;;11.83;3.58;;;;;;;23.79;60.21;100223.57;127470;1093;22872;-81
2021/08/15 08:16:58;;;;;;;11.40;3.13;;;;;;;23.83;60.25;100217.47;127642;1093;22815;-82
2021/08/15 08:19:29;;;;;;;10.03;2.95;;;;;;;23.90;59.45;100211.75;127541;1093;22797;-81
2021/08/15 08:22:01;;;;;;;11.18;3.80;;;;;;;24.02;60.36;100217.83;127585;1093;22769;-81
2021/08/15 08:24:34;;;;;;;9.50;3.57;;;;;;;24.13;59.22;100217.43;127601;1093;24416;-81
2021/08/15 08:27:06;;;;;;;11.28;4.13;;;;;;;24.26;59.65;100213.59;127908;1092;25777;-84
2021/08/15 08:29:37;;;;;;;15.10;4.83;;;;;;;24.35;60.08;100215.86;127751;1092;22773;-80
2021/08/15 08:32:09;;;;;;;9.43;3.68;;;;;;;24.45;58.83;100214.67;127616;1093;22795;-84
2021/08/15 08:34:40;;;;;;;14.58;4.03;;;;;;;24.53;59.26;100211.78;127472;1092;22795;-81
2021/08/15 08:37:12;;;;;;;11.10;4.28;;;;;;;24.60;59.13;100208.88;127464;1093;22875;-81
2021/08/15 08:39:43;;;;;;;11.95;3.73;;;;;;;24.71;59.38;100213.41;126753;1093;23062;-81
2021/08/15 08:42:15;;;;;;;12.83;4.25;;;;;;;24.77;58.93;100211.88;126956;1092;27418;-80
2021/08/15 08:44:47;;;;;;;9.90;3.33;;;;;;;24.86;58.45;100211.27;126922;1093;22780;-81
2021/08/15 08:47:18;;;;;;;11.23;3.20;;;;;;;24.93;58.07;100206.86;126841;1093;22740;-80
2021/08/15 08:49:52;;;;;;;11.03;3.55;;;;;;;24.98;57.35;100208.71;126713;1093;26277;-79
2021/08/15 08:52:25;;;;;;;8.40;2.87;;;;;;;25.00;56.91;100210.98;126848;1093;22792;-80
2021/08/15 08:54:56;;;;;;;11.73;3.20;;;;;;;25.06;57.19;100206.56;126776;1092;27163;-80
2021/08/15 08:57:28;;;;;;;10.98;3.25;;;;;;;25.16;56.46;100201.73;126925;1093;22725;-80
2021/08/15 09:00:01;;;;;;;9.38;3.23;;;;;;;25.25;56.37;100201.10;126890;1092;22765;-80
2021/08/15 09:02:36;;;;;;;8.48;2.80;;;;;;;25.35;56.29;100198.34;127130;1093;22705;-80
2021/08/15 09:05:09;;;;;;;11.03;2.95;;;;;;;25.41;55.48;100202.52;127015;1092;22787;-80
2021/08/15 09:07:43;;;;;;;11.83;2.45;;;;;;;25.48;54.61;100200.95;127035;1093;24470;-80
2021/08/15 09:10:15;;;;;;;8.95;2.55;;;;;;;25.51;54.50;100199.79;127120;1092;23870;-80
2021/08/15 09:12:48;;;;;;;8.85;3.20;;;;;;;25.56;54.77;100190.97;127527;1092;22721;-80
2021/08/15 09:15:22;;;;;;;8.68;2.55;;;;;;;25.63;54.34;100203.68;127304;1093;22989;-80
2021/08/15 09:18:03;;;;;;;11.65;3.98;;;;;;;25.72;54.34;100196.55;127165;1093;22806;-80
2021/08/15 09:20:43;;;;;;;25.17;12.03;;;;;;;25.80;53.50;100198.00;127267;1093;22929;-80
2021/08/15 09:23:24;;;;;;;21.80;9.93;;;;;;;25.85;53.46;100193.36;127703;1093;22781;-80
2021/08/15 09:26:17;;;;;;;9.83;3.30;;;;;;;25.88;53.46;100192.20;127569;1092;25755;-80
2021/08/15 09:28:51;;;;;;;8.18;2.80;;;;;;;25.86;52.69;100198.51;127355;1092;22757;-80
2021/08/15 09:31:29;;;;;;;12.25;3.03;;;;;;;25.84;52.66;100192.62;127016;1092;26247;-79
2021/08/15 09:34:04;;;;;;;12.55;2.25;;;;;;;25.84;52.12;100177.55;126929;1092;22934;-80
2021/08/15 09:36:41;;;;;;;10.75;2.33;;;;;;;25.86;52.23;100186.30;126663;1093;22795;-79
2021/08/15 09:39:13;;;;;;;9.75;2.93;;;;;;;25.90;52.23;100187.41;126632;1092;23411;-79
2021/08/15 09:41:54;;;;;;;11.38;2.63;;;;;;;25.97;51.93;100182.95;126860;1093;22912;-79
2021/08/15 09:44:27;;;;;;;9.73;2.63;;;;;;;26.07;52.44;100178.84;126856;1093;22746;-80
2021/08/15 09:47:07;;;;;;;9.50;2.88;;;;;;;26.16;52.18;100174.55;127086;1093;22923;-80
2021/08/15 09:49:41;;;;;;;10.83;2.80;;;;;;;26.22;51.43;100167.23;126837;1092;22742;-80
2021/08/15 09:52:14;;;;;;;12.40;2.30;;;;;;;26.25;50.73;100171.78;126933;1092;22927;-79
2021/08/15 09:54:55;;;;;;;6.87;2.10;;;;;;;26.27;50.62;100168.32;126782;1093;24188;-79
2021/08/15 09:57:34;;;;;;;11.30;2.90;;;;;;;26.30;50.49;100167.89;126899;1093;22735;-80
2021/08/15 10:00:05;;;;;;;;;;;;;;;26.33;50.71;100169.58;127577;1092;22780;-80
2021/08/15 10:02:37;;;;;;;8.03;2.03;;;;;;;26.38;49.95;100165.69;127276;1092;21806;-80
2021/08/15 10:05:10;;;;;;;5.18;1.60;;;;;;;26.44;49.97;100162.58;127135;1093;23392;-78
2021/08/15 10:07:42;;;;;;;10.37;2.17;;;;;;;26.48;49.35;100156.41;126796;1093;26289;-78
2021/08/15 10:10:17;;;;;;;5.58;1.70;;;;;;;26.52;49.30;100148.92;126628;1093;22844;-79
2021/08/15 10:12:48;;;;;;;6.58;1.98;;;;;;;26.55;49.36;100159.17;126771;1093;26276;-80
2021/08/15 10:15:19;;;;;;;7.85;1.78;;;;;;;26.60;48.27;100160.26;126756;1092;22790;-80
2021/08/15 10:17:54;;;;;;;7.58;2.13;;;;;;;26.67;49.21;100148.69;126891;1092;22729;-80
2021/08/15 10:20:29;;;;;;;9.70;2.45;;;;;;;26.77;49.09;100154.52;127491;1093;22838;-80
2021/08/15 10:23:09;;;;;;;6.28;1.50;;;;;;;26.88;48.96;100145.39;127487;1093;22844;-79
2021/08/15 10:25:42;;;;;;;7.05;2.18;;;;;;;26.95;48.64;100142.39;126891;1092;22815;-80
2021/08/15 10:28:41;;;;;;;6.55;2.30;;;;;;;27.01;48.35;100140.01;126786;1093;23623;-80
2021/08/15 10:31:12;;;;;;;7.30;2.00;;;;;;;27.00;47.37;100137.75;126799;1093;25899;-80
2021/08/15 10:33:59;;;;;;;8.78;2.13;;;;;;;27.00;47.30;100132.02;126796;1093;22834;-79
2021/08/15 10:36:31;;;;;;;7.73;1.70;;;;;;;27.00;47.51;100134.88;126848;1092;24446;-79
2021/08/15 10:39:23;;;;;;;9.03;1.95;;;;;;;27.03;47.51;100128.70;126758;1093;27210;-80
2021/08/15 10:41:55;;;;;;;9.43;1.88;;;;;;;27.14;47.54;100121.66;126735;1093;22787;-80
2021/08/15 10:44:26;;;;;;;6.73;1.70;;;;;;;27.24;46.75;100126.07;127072;1091;26239;-79
2021/08/15 10:47:15;;;;;;;6.58;1.95;;;;;;;27.23;45.83;100132.38;126744;1092;22858;-79
2021/08/15 10:49:52;;;;;;;6.50;1.78;;;;;;;27.24;45.82;100119.58;126886;1093;22864;-80
2021/08/15 10:52:37;;;;;;;11.30;2.33;;;;;;;27.28;46.36;100113.39;127062;1093;22827;-79
2021/08/15 10:55:14;;;;;;;7.10;1.70;;;;;;;27.31;45.43;100109.34;126901;1092;22791;-79
2021/08/15 10:57:53;;;;;;;7.78;1.70;;;;;;;27.31;45.59;100112.97;126940;1093;22780;-80
2021/08/15 11:00:51;;;;;;;6.85;1.80;;;;;;;27.27;45.23;100106.16;126988;1093;23015;-79
2021/08/15 11:03:55;;;;;;;7.93;1.90;;;;;;;27.22;45.29;100107.95;126776;1093;22893;-80
2021/08/15 11:06:49;;;;;;;7.55;1.58;;;;;;;27.15;45.08;100112.45;127158;1092;22761;-80
2021/08/15 11:09:21;;;;;;;6.70;1.95;;;;;;;27.19;45.16;100114.88;126825;1093;22838;-80
2021/08/15 11:12:13;;;;;;;5.93;1.83;;;;;;;27.22;45.63;100093.63;126901;1092;26249;-80
2021/08/15 11:15:00;;;;;;;5.88;1.50;;;;;;;27.31;45.06;100106.47;126974;1093;22801;-80
2021/08/15 11:17:33;;;;;;;9.88;1.95;;;;;;;27.36;44.85;100096.84;126941;1093;22754;-79
2021/08/15 11:20:37;;;;;;;7.55;1.88;;;;;;;27.34;44.92;100100.31;126727;1093;25287;-79
2021/08/15 11:23:12;;;;;;;6.28;1.60;;;;;;;27.35;44.48;100098.21;126623;1093;22783;-82
2021/08/15 11:25:45;;;;;;;6.53;1.40;;;;;;;27.41;44.77;100090.84;127257;1093;22860;-80
2021/08/15 11:28:18;;;;;;;6.58;2.03;;;;;;;27.57;44.82;100082.70;127325;1093;22822;-81
2021/08/15 11:30:55;;;;;;;9.48;1.63;;;;;;;27.76;43.77;100094.19;127196;1092;24520;-81
2021/08/15 11:33:27;;;;;;;6.75;1.90;;;;;;;27.92;43.82;100087.55;127377;1092;22745;-81
2021/08/15 11:35:58;;;;;;;7.25;1.63;;;;;;;28.12;43.65;100082.55;127102;1093;23618;-84